createdAt,value
2023-04-11T00:01:07.947Z,4.20
2023-04-11T00:03:34.957Z,4.28
2023-04-11T00:06:01.692Z,4.28
2023-04-11T00:08:28.219Z,3.97
2023-04-11T00:10:54.745Z,4.07
2023-04-11T00:13:21.404Z,4.35
2023-04-11T00:15:48.013Z,4.43
2023-04-11T00:18:14.594Z,4.40
2023-04-11T00:20:41.078Z,4.65
2023-04-11T00:23:08.759Z,4.60
2023-04-11T00:25:37.194Z,4.78
2023-04-11T00:28:03.832Z,4.55
2023-04-11T00:30:30.680Z,4.65
2023-04-11T00:32:57.227Z,4.53
2023-04-11T00:35:23.769Z,4.45
2023-04-11T00:37:54.250Z,4.72
2023-04-11T00:40:20.823Z,4.50
2023-04-11T00:42:47.805Z,4.70
2023-04-11T00:45:14.560Z,4.53
2023-04-11T00:47:41.475Z,4.40
2023-04-11T00:50:08.611Z,5.65
2023-04-11T00:52:36.924Z,4.50
2023-04-11T00:55:03.853Z,4.82
2023-04-11T00:57:30.904Z,4.95
2023-04-11T00:59:58.424Z,4.53
2023-04-11T01:02:26.649Z,4.90
2023-04-11T01:04:53.437Z,5.18
2023-04-11T01:07:20.346Z,4.75
2023-04-11T01:09:47.439Z,5.28
2023-04-11T01:12:14.902Z,5.55
2023-04-11T01:14:41.609Z,5.20
2023-04-11T01:17:12.559Z,5.35
2023-04-11T01:22:05.882Z,4.97
2023-04-11T01:24:33.090Z,5.05
2023-04-11T01:26:59.614Z,6.22
2023-04-11T01:29:26.131Z,5.63
2023-04-11T01:31:52.615Z,5.65
2023-04-11T01:34:19.429Z,5.60
2023-04-11T01:36:45.994Z,5.18
2023-04-11T01:39:12.578Z,5.35
2023-04-11T01:41:39.717Z,5.47
2023-04-11T01:44:06.224Z,6.13
2023-04-11T01:46:33.817Z,5.32
2023-04-11T01:49:01.606Z,5.43
2023-04-11T01:51:31.405Z,5.38
2023-04-11T01:54:00.605Z,6.60
2023-04-11T01:56:27.199Z,6.05
2023-04-11T01:58:53.860Z,5.40
2023-04-11T02:01:21.675Z,6.70
2023-04-11T02:03:48.320Z,6.97
2023-04-11T02:06:15.801Z,6.93
2023-04-11T02:08:43.146Z,6.60
2023-04-11T02:11:09.962Z,6.80
2023-04-11T02:13:36.626Z,7.30
2023-04-11T02:16:18.297Z,6.78
2023-04-11T02:18:45.818Z,6.47
2023-04-11T02:21:12.580Z,6.95
2023-04-11T02:23:39.221Z,6.88
2023-04-11T02:26:05.779Z,7.75
2023-04-11T02:28:32.320Z,7.38
2023-04-11T02:30:58.911Z,7.28
2023-04-11T02:33:26.203Z,7.07
2023-04-11T02:35:52.686Z,8.40
2023-04-11T02:38:19.248Z,7.60
2023-04-11T02:40:45.792Z,7.45
2023-04-11T02:43:12.763Z,7.88
2023-04-11T02:45:39.319Z,7.68
2023-04-11T02:48:06.207Z,7.20
2023-04-11T02:50:32.736Z,8.18
2023-04-11T02:52:59.248Z,8.73
2023-04-11T02:55:27.056Z,7.55
2023-04-11T02:57:53.583Z,7.40
2023-04-11T03:00:21.187Z,7.97
2023-04-11T03:02:49.128Z,7.10
2023-04-11T03:05:15.710Z,7.35
2023-04-11T03:07:43.231Z,8.05
2023-04-11T03:10:09.937Z,8.25
2023-04-11T03:12:36.432Z,7.45
2023-04-11T03:15:03.170Z,7.93
2023-04-11T03:17:29.780Z,8.43
2023-04-11T03:19:56.327Z,8.57
2023-04-11T03:22:23.903Z,9.27
2023-04-11T03:24:50.679Z,8.35
2023-04-11T03:27:17.221Z,8.00
2023-04-11T03:29:43.696Z,8.63
2023-04-11T03:32:10.180Z,8.80
2023-04-11T03:34:36.745Z,8.02
2023-04-11T03:37:03.703Z,7.65
2023-04-11T03:39:30.270Z,8.48
2023-04-11T03:41:57.723Z,7.43
2023-04-11T03:44:24.264Z,8.32
2023-04-11T03:46:50.812Z,7.30
2023-04-11T03:49:17.369Z,8.90
2023-04-11T03:51:44.010Z,7.30
2023-04-11T03:54:10.517Z,7.82
2023-04-11T03:56:37.090Z,9.00
2023-04-11T03:59:03.661Z,7.85
2023-04-11T04:01:30.141Z,8.35
2023-04-11T04:03:57.005Z,8.20
2023-04-11T04:06:24.044Z,8.82
2023-04-11T04:08:50.566Z,7.88
2023-04-11T04:11:17.237Z,8.50
2023-04-11T04:13:43.735Z,7.50
2023-04-11T04:16:10.293Z,7.90
2023-04-11T04:18:36.851Z,8.18
2023-04-11T04:21:03.724Z,8.43
2023-04-11T04:23:32.527Z,9.00
2023-04-11T04:26:02.084Z,8.05
2023-04-11T04:28:29.251Z,8.63
2023-04-11T04:30:58.064Z,8.00
2023-04-11T04:33:25.817Z,8.80
2023-04-11T04:35:58.192Z,8.07
2023-04-11T04:38:26.044Z,8.45
2023-04-11T04:40:54.841Z,9.25
2023-04-11T04:43:23.511Z,9.13
2023-04-11T04:45:50.425Z,7.95
2023-04-11T04:48:17.437Z,9.43
2023-04-11T04:50:45.736Z,9.75
2023-04-11T04:53:12.529Z,7.53
2023-04-11T04:55:39.121Z,8.73
2023-04-11T04:58:07.919Z,7.75
2023-04-11T05:00:34.463Z,9.13
2023-04-11T05:03:06.017Z,8.15
2023-04-11T05:07:57.943Z,7.90
2023-04-11T05:10:24.628Z,9.02
2023-04-11T05:12:53.367Z,8.30
2023-04-11T05:15:25.199Z,7.82
2023-04-11T05:17:52.079Z,7.60
2023-04-11T05:20:20.508Z,7.15
2023-04-11T05:22:49.224Z,7.80
2023-04-11T05:25:15.973Z,7.32
2023-04-11T05:27:42.587Z,7.53
2023-04-11T05:30:10.075Z,7.45
2023-04-11T05:32:36.614Z,7.20
2023-04-11T05:35:03.160Z,7.85
2023-04-11T05:37:31.238Z,8.23
2023-04-11T05:39:58.524Z,7.60
2023-04-11T05:42:25.395Z,7.20
2023-04-11T05:44:51.883Z,8.55
2023-04-11T05:47:18.446Z,7.20
2023-04-11T05:49:44.944Z,7.80
2023-04-11T05:52:11.413Z,7.90
2023-04-11T05:54:38.143Z,8.40
2023-04-11T05:57:06.335Z,7.45
2023-04-11T05:59:34.598Z,7.35
2023-04-11T06:02:01.717Z,8.63
2023-04-11T06:04:28.599Z,7.70
2023-04-11T06:06:55.553Z,8.77
2023-04-11T06:09:22.052Z,9.43
2023-04-11T06:11:48.597Z,7.55
2023-04-11T06:14:15.110Z,8.07
2023-04-11T06:16:42.468Z,6.50
2023-04-11T06:19:09.099Z,6.63
2023-04-11T06:21:35.806Z,7.65
2023-04-11T06:24:09.239Z,8.25
2023-04-11T06:26:35.783Z,7.78
2023-04-11T06:29:06.457Z,8.02
2023-04-11T06:31:33.855Z,7.55
2023-04-11T06:34:01.348Z,7.88
2023-04-11T06:36:28.058Z,6.65
2023-04-11T06:38:54.600Z,7.35
2023-04-11T06:41:21.156Z,7.90
2023-04-11T06:43:47.673Z,8.00
2023-04-11T06:46:14.296Z,7.35
2023-04-11T06:48:40.989Z,8.18
2023-04-11T06:51:09.111Z,7.45
2023-04-11T06:53:35.988Z,8.00
2023-04-11T06:56:03.861Z,6.85
2023-04-11T06:58:30.452Z,7.20
2023-04-11T07:00:56.939Z,7.82
2023-04-11T07:03:25.181Z,6.72
2023-04-11T07:05:52.281Z,6.03
2023-04-11T07:08:18.972Z,6.53
2023-04-11T07:10:45.557Z,6.93
2023-04-11T07:13:12.157Z,6.88
2023-04-11T07:15:38.673Z,7.95
2023-04-11T07:18:05.297Z,6.78
2023-04-11T07:20:35.083Z,7.38
2023-04-11T07:23:02.899Z,6.25
2023-04-11T07:25:30.757Z,6.35
2023-04-11T07:27:57.778Z,6.28
2023-04-11T07:30:24.549Z,6.60
2023-04-11T07:32:51.358Z,6.55
2023-04-11T07:35:18.071Z,5.93
2023-04-11T07:37:45.656Z,6.60
2023-04-11T07:40:14.406Z,6.18
2023-04-11T07:42:41.664Z,6.65
2023-04-11T07:45:08.674Z,6.93
2023-04-11T07:47:35.675Z,7.35
2023-04-11T07:50:02.445Z,6.45
2023-04-11T07:52:28.963Z,6.82
2023-04-11T07:54:55.953Z,6.05
2023-04-11T07:57:22.459Z,7.47
2023-04-11T07:59:48.981Z,6.90
2023-04-11T08:02:15.751Z,7.05
2023-04-11T08:04:42.416Z,6.45
2023-04-11T08:07:09.080Z,6.88
2023-04-11T08:09:35.571Z,7.28
2023-04-11T08:12:02.248Z,6.07
2023-04-11T08:14:28.762Z,6.45
2023-04-11T08:16:55.630Z,6.75
2023-04-11T08:19:22.360Z,6.68
2023-04-11T08:21:48.843Z,6.65
2023-04-11T08:24:15.479Z,6.47
2023-04-11T08:26:42.080Z,7.25
2023-04-11T08:29:11.420Z,6.93
2023-04-11T08:31:42.781Z,6.40
2023-04-11T08:34:09.410Z,6.70
2023-04-11T08:36:36.028Z,6.50
2023-04-11T08:39:02.750Z,7.03
2023-04-11T08:41:32.587Z,7.72
2023-04-11T08:43:59.424Z,7.28
2023-04-11T08:46:26.005Z,7.00
2023-04-11T08:48:52.588Z,7.88
2023-04-11T08:51:23.546Z,7.25
2023-04-11T08:56:17.477Z,7.50
2023-04-11T08:58:44.178Z,7.57
2023-04-11T09:01:32.494Z,7.40
2023-04-11T09:04:00.590Z,7.50
2023-04-11T09:06:30.957Z,6.95
2023-04-11T09:08:58.914Z,6.85
2023-04-11T09:11:26.409Z,6.82
2023-04-11T09:14:13.316Z,6.95
2023-04-11T09:16:54.035Z,6.97
2023-04-11T09:19:25.827Z,7.55
2023-04-11T09:21:53.430Z,6.85
2023-04-11T09:24:20.092Z,7.95
2023-04-11T09:26:46.707Z,7.60
2023-04-11T09:29:34.891Z,7.10
2023-04-11T09:32:01.512Z,7.72
2023-04-11T09:34:29.301Z,7.57
2023-04-11T09:36:56.473Z,7.70
2023-04-11T09:39:23.106Z,7.45
2023-04-11T09:41:49.829Z,7.28
2023-04-11T09:44:16.430Z,7.75
2023-04-11T09:46:59.352Z,7.82
2023-04-11T09:49:26.187Z,7.28
2023-04-11T09:51:53.204Z,6.90
2023-04-11T09:54:22.796Z,7.35
2023-04-11T09:56:50.329Z,7.70
2023-04-11T09:59:18.143Z,8.25
2023-04-11T10:01:44.737Z,7.35
2023-04-11T10:04:11.482Z,7.25
2023-04-11T10:06:48.112Z,7.22
2023-04-11T10:09:15.014Z,6.60
2023-04-11T10:11:45.077Z,6.65
2023-04-11T10:14:36.549Z,7.65
2023-04-11T10:17:14.072Z,7.47
2023-04-11T10:19:41.022Z,7.45
2023-04-11T10:22:07.777Z,7.10
2023-04-11T10:24:34.299Z,7.40
2023-04-11T10:27:04.728Z,7.55
2023-04-11T10:29:31.262Z,7.55
2023-04-11T10:32:16.641Z,7.00
2023-04-11T10:34:55.651Z,7.53
2023-04-11T10:37:32.923Z,7.28
2023-04-11T10:40:04.575Z,9.13
2023-04-11T10:42:36.085Z,8.05
2023-04-11T10:45:23.469Z,8.32
2023-04-11T10:48:14.253Z,8.27
2023-04-11T10:50:42.900Z,6.70
2023-04-11T10:53:14.390Z,7.10
2023-04-11T10:55:48.874Z,6.65
2023-04-11T10:58:22.199Z,7.47
2023-04-11T11:00:52.179Z,7.15
2023-04-11T11:03:25.597Z,6.55
2023-04-11T11:06:03.445Z,6.70
2023-04-11T11:08:35.283Z,7.80
2023-04-11T11:11:06.951Z,7.47
2023-04-11T11:13:40.236Z,7.05
2023-04-11T11:16:08.839Z,7.47
2023-04-11T11:18:36.217Z,6.80
2023-04-11T11:21:03.264Z,7.07
2023-04-11T11:23:34.353Z,7.03
2023-04-11T11:26:01.557Z,7.60
2023-04-11T11:30:56.949Z,8.02
2023-04-11T11:33:26.354Z,7.57
2023-04-11T11:36:01.209Z,8.07
2023-04-11T11:38:29.376Z,7.68
2023-04-11T11:40:56.771Z,6.90
2023-04-11T11:43:25.433Z,7.50
2023-04-11T11:46:14.338Z,7.13
2023-04-11T11:48:58.658Z,7.28
2023-04-11T11:51:25.738Z,7.18
2023-04-11T11:54:04.949Z,6.82
2023-04-11T11:56:31.970Z,9.32
2023-04-11T11:58:58.906Z,7.30
2023-04-11T12:01:25.731Z,7.07
2023-04-11T12:03:53.794Z,8.23
2023-04-11T12:06:21.049Z,7.50
2023-04-11T12:08:53.692Z,6.65
2023-04-11T12:11:20.632Z,7.10
2023-04-11T12:13:52.145Z,7.60
2023-04-11T12:16:21.808Z,7.28
2023-04-11T12:18:48.458Z,7.00
2023-04-11T12:21:14.997Z,7.70
2023-04-11T12:23:41.533Z,7.30
2023-04-11T12:26:08.010Z,7.30
2023-04-11T12:28:34.518Z,6.93
2023-04-11T12:31:01.017Z,6.47
2023-04-11T12:33:27.565Z,6.30
2023-04-11T12:35:54.141Z,6.93
2023-04-11T12:38:20.731Z,7.20
2023-04-11T12:40:47.319Z,7.05
2023-04-11T12:43:13.933Z,6.55
2023-04-11T12:45:40.536Z,7.63
2023-04-11T12:48:08.069Z,7.07
2023-04-11T12:50:34.669Z,7.45
2023-04-11T12:53:01.507Z,6.25
2023-04-11T12:55:28.783Z,7.22
2023-04-11T12:57:55.896Z,6.70
2023-04-11T13:00:22.457Z,7.00
2023-04-11T13:02:49.294Z,6.38
2023-04-11T13:05:16.587Z,7.10
2023-04-11T13:07:46.963Z,6.55
2023-04-11T13:10:15.734Z,7.33
2023-04-11T13:12:44.869Z,7.10
2023-04-11T13:15:16.237Z,7.30
2023-04-11T13:17:43.126Z,6.90
2023-04-11T13:20:11.032Z,6.35
2023-04-11T13:22:41.645Z,6.95
2023-04-11T13:25:08.986Z,6.85
2023-04-11T13:27:36.394Z,6.72
2023-04-11T13:30:04.903Z,7.43
2023-04-11T13:32:32.137Z,6.45
2023-04-11T13:34:58.917Z,6.20
2023-04-11T13:37:26.591Z,6.35
2023-04-11T13:39:53.088Z,6.50
2023-04-11T13:42:21.834Z,6.90
2023-04-11T13:44:48.620Z,6.57
2023-04-11T13:47:15.459Z,7.47
2023-04-11T13:49:41.983Z,7.55
2023-04-11T13:52:08.461Z,7.20
2023-04-11T13:54:34.946Z,7.35
2023-04-11T13:57:03.438Z,6.97
2023-04-11T13:59:31.191Z,7.05
2023-04-11T14:01:57.773Z,6.90
2023-04-11T14:04:24.391Z,6.88
2023-04-11T14:06:53.836Z,6.20
2023-04-11T14:09:20.277Z,6.55
2023-04-11T14:11:46.802Z,6.80
2023-04-11T14:14:13.314Z,6.78
2023-04-11T14:16:42.046Z,6.95
2023-04-11T14:19:08.528Z,7.07
2023-04-11T14:21:39.272Z,6.70
2023-04-11T14:24:09.201Z,6.82
2023-04-11T14:26:35.758Z,7.03
2023-04-11T14:29:02.925Z,7.50
2023-04-11T14:31:29.468Z,6.80
2023-04-11T14:33:56.244Z,6.72
2023-04-11T14:36:23.048Z,7.07
2023-04-11T14:38:49.577Z,6.97
2023-04-11T14:41:16.319Z,6.78
2023-04-11T14:43:42.818Z,6.50
2023-04-11T14:46:09.313Z,7.40
2023-04-11T14:48:36.189Z,7.03
2023-04-11T14:51:03.503Z,7.00
2023-04-11T14:53:30.424Z,7.20
2023-04-11T14:55:56.900Z,6.53
2023-04-11T14:58:23.585Z,6.10
2023-04-11T15:00:50.603Z,6.60
2023-04-11T15:05:57.669Z,6.88
2023-04-11T15:08:24.251Z,6.82
2023-04-11T15:10:54.282Z,6.60
2023-04-11T15:13:22.371Z,7.10
2023-04-11T15:15:48.930Z,6.25
2023-04-11T15:18:19.961Z,7.25
2023-04-11T15:20:46.519Z,7.72
2023-04-11T15:23:13.000Z,6.97
2023-04-11T15:25:39.477Z,6.35
2023-04-11T15:28:05.957Z,6.72
2023-04-11T15:30:32.486Z,6.93
2023-04-11T15:32:59.065Z,9.05
2023-04-11T15:35:25.744Z,6.85
2023-04-11T15:37:52.231Z,7.10
2023-04-11T15:40:18.946Z,6.90
2023-04-11T15:42:45.647Z,7.15
2023-04-11T15:45:12.206Z,6.50
2023-04-11T15:47:38.872Z,6.70
2023-04-11T15:50:06.160Z,6.80
2023-04-11T15:52:32.767Z,6.60
2023-04-11T15:54:59.219Z,7.00
2023-04-11T15:57:28.196Z,7.00
2023-04-11T15:59:54.718Z,7.30
2023-04-11T16:02:21.447Z,7.18
2023-04-11T16:04:51.263Z,6.50
2023-04-11T16:07:20.090Z,6.72
2023-04-11T16:09:46.941Z,7.80
2023-04-11T16:12:13.611Z,6.70
2023-04-11T16:14:40.398Z,6.75
2023-04-11T16:17:06.926Z,6.70
2023-04-11T16:19:33.477Z,7.32
2023-04-11T16:22:00.108Z,7.53
2023-04-11T16:24:28.811Z,7.63
2023-04-11T16:26:57.311Z,6.90
2023-04-11T16:29:24.872Z,7.07
2023-04-11T16:31:51.727Z,6.43
2023-04-11T16:34:18.620Z,6.70
2023-04-11T16:36:45.377Z,7.28
2023-04-11T16:39:11.887Z,7.43
2023-04-11T16:41:38.461Z,7.97
2023-04-11T16:44:11.660Z,6.70
2023-04-11T16:46:41.762Z,7.20
2023-04-11T16:49:09.170Z,6.60
2023-04-11T16:51:38.680Z,6.70
2023-04-11T16:54:09.679Z,7.10
2023-04-11T16:56:36.946Z,7.40
2023-04-11T16:59:04.696Z,6.70
2023-04-11T17:01:31.748Z,7.47
2023-04-11T17:03:59.001Z,6.88
2023-04-11T17:06:27.136Z,7.00
2023-04-11T17:08:53.884Z,6.90
2023-04-11T17:11:20.433Z,6.50
2023-04-11T17:13:49.670Z,6.95
2023-04-11T17:16:17.593Z,6.38
2023-04-11T17:18:44.309Z,7.80
2023-04-11T17:21:10.965Z,6.70
2023-04-11T17:23:43.024Z,7.10
2023-04-11T17:26:10.680Z,6.50
2023-04-11T17:28:37.224Z,6.88
2023-04-11T17:31:14.552Z,6.80
2023-04-11T17:33:42.127Z,7.43
2023-04-11T17:36:09.853Z,7.18
2023-04-11T17:38:43.228Z,6.95
2023-04-11T17:43:39.224Z,6.80
2023-04-11T17:46:06.138Z,7.07
2023-04-11T17:48:32.639Z,7.03
2023-04-11T17:50:59.330Z,7.82
2023-04-11T17:53:26.462Z,7.10
2023-04-11T17:55:53.002Z,6.60
2023-04-11T17:58:19.580Z,7.07
2023-04-11T18:00:55.734Z,8.13
2023-04-11T18:03:25.418Z,7.95
2023-04-11T18:05:53.969Z,7.43
2023-04-11T18:08:24.297Z,6.93
2023-04-11T18:10:56.760Z,6.53
2023-04-11T18:13:23.307Z,8.43
2023-04-11T18:15:49.983Z,6.40
2023-04-11T18:18:16.693Z,7.15
2023-04-11T18:20:43.242Z,6.50
2023-04-11T18:23:09.820Z,6.80
2023-04-11T18:25:36.394Z,7.03
2023-04-11T18:28:03.379Z,6.70
2023-04-11T18:30:29.864Z,6.80
2023-04-11T18:32:56.432Z,7.00
2023-04-11T18:35:24.010Z,7.07
2023-04-11T18:37:50.992Z,6.70
2023-04-11T18:40:18.462Z,6.10
2023-04-11T18:42:47.962Z,6.82
2023-04-11T18:45:17.578Z,7.13
2023-04-11T18:47:47.727Z,6.47
2023-04-11T18:50:15.506Z,6.68
2023-04-11T18:52:43.319Z,6.07
2023-04-11T18:55:10.784Z,6.40
2023-04-11T18:57:38.640Z,7.13
2023-04-11T19:00:18.582Z,6.88
2023-04-11T19:02:52.362Z,8.55
2023-04-11T19:05:19.485Z,7.57
2023-04-11T19:07:46.612Z,5.80
2023-04-11T19:10:13.669Z,6.93
2023-04-11T19:12:40.602Z,6.43
2023-04-11T19:15:08.240Z,7.10
2023-04-11T19:17:36.196Z,7.63
2023-04-11T19:20:06.669Z,6.70
2023-04-11T19:22:34.677Z,7.10
2023-04-11T19:25:01.301Z,7.40
2023-04-11T19:27:28.017Z,7.45
2023-04-11T19:29:54.669Z,7.43
2023-04-11T19:32:22.386Z,7.63
2023-04-11T19:34:49.737Z,6.65
2023-04-11T19:37:19.594Z,7.35
2023-04-11T19:39:46.221Z,6.97
2023-04-11T19:42:12.878Z,6.18
2023-04-11T19:44:39.888Z,6.75
2023-04-11T19:47:06.515Z,7.50
2023-04-11T19:49:33.068Z,7.72
2023-04-11T19:51:59.650Z,7.60
2023-04-11T19:54:26.162Z,8.90
2023-04-11T19:56:53.042Z,7.32
2023-04-11T19:59:19.733Z,7.05
2023-04-11T20:01:46.460Z,6.85
2023-04-11T20:04:13.787Z,7.95
2023-04-11T20:06:43.963Z,7.30
2023-04-11T20:09:11.643Z,7.07
2023-04-11T20:11:39.128Z,9.05
2023-04-11T20:14:06.871Z,8.55
2023-04-11T20:16:33.417Z,7.10
2023-04-11T20:19:01.677Z,9.32
2023-04-11T20:21:28.455Z,6.88
2023-04-11T20:23:55.240Z,7.03
2023-04-11T20:26:22.428Z,6.45
2023-04-11T20:28:50.350Z,7.13
2023-04-11T20:31:16.950Z,6.70
2023-04-11T20:33:44.264Z,7.43
2023-04-11T20:36:11.425Z,7.47
2023-04-11T20:38:38.024Z,7.78
2023-04-11T20:41:05.776Z,7.28
2023-04-11T20:43:32.410Z,6.82
2023-04-11T20:45:58.973Z,6.68
2023-04-11T20:48:26.003Z,7.15
2023-04-11T20:50:55.823Z,6.18
2023-04-11T20:53:22.573Z,6.45
2023-04-11T20:55:49.283Z,7.40
2023-04-11T20:58:18.644Z,7.43
2023-04-11T21:00:45.530Z,6.95
2023-04-11T21:03:12.494Z,6.93
2023-04-11T21:05:43.917Z,7.10
2023-04-11T21:08:12.051Z,6.97
2023-04-11T21:10:38.613Z,7.63
2023-04-11T21:13:05.288Z,7.20
2023-04-11T21:15:33.808Z,7.13
2023-04-11T21:18:00.440Z,6.95
2023-04-11T21:20:27.109Z,6.80
2023-04-11T21:22:54.151Z,7.53
2023-04-11T21:25:21.208Z,7.63
2023-04-11T21:27:48.286Z,7.53
2023-04-11T21:30:14.977Z,7.38
2023-04-11T21:32:41.810Z,6.90
2023-04-11T21:35:10.123Z,6.80
2023-04-11T21:37:36.672Z,10.07
2023-04-11T21:40:03.633Z,7.05
2023-04-11T21:42:30.348Z,6.50
2023-04-11T21:44:56.947Z,6.97
2023-04-11T21:47:23.609Z,6.80
2023-04-11T21:49:50.510Z,6.43
2023-04-11T21:52:17.267Z,6.82
2023-04-11T21:54:43.936Z,6.80
2023-04-11T21:57:10.983Z,7.05
2023-04-11T21:59:38.400Z,7.50
2023-04-11T22:02:05.337Z,8.07
2023-04-11T22:04:39.228Z,7.15
2023-04-11T22:07:15.583Z,6.82
2023-04-11T22:09:46.510Z,6.57
2023-04-11T22:14:40.761Z,7.20
2023-04-11T22:17:07.330Z,6.90
2023-04-11T22:19:34.247Z,7.82
2023-04-11T22:22:05.621Z,6.28
2023-04-11T22:24:32.141Z,7.35
2023-04-11T22:26:58.749Z,7.38
2023-04-11T22:29:30.513Z,7.10
2023-04-11T22:31:58.248Z,7.68
2023-04-11T22:34:25.696Z,7.45
2023-04-11T22:36:52.238Z,7.93
2023-04-11T22:39:18.831Z,7.50
2023-04-11T22:41:47.725Z,6.75
2023-04-11T22:44:14.272Z,6.55
2023-04-11T22:46:40.764Z,7.93
2023-04-11T22:49:09.686Z,7.45
2023-04-11T22:51:38.165Z,7.32
2023-04-11T22:54:05.098Z,7.30
2023-04-11T22:56:31.648Z,7.25
2023-04-11T22:58:58.593Z,7.03
2023-04-11T23:01:25.121Z,7.78
2023-04-11T23:03:51.949Z,7.15
2023-04-11T23:06:18.511Z,7.35
2023-04-11T23:08:45.048Z,7.25
2023-04-11T23:11:11.586Z,7.43
2023-04-11T23:13:38.054Z,7.28
2023-04-11T23:16:05.863Z,7.13
2023-04-11T23:18:32.323Z,7.32
2023-04-11T23:20:59.749Z,7.20
2023-04-11T23:23:26.260Z,7.43
2023-04-11T23:25:53.277Z,6.95
2023-04-11T23:28:20.037Z,7.20
2023-04-11T23:30:46.542Z,7.35
2023-04-11T23:33:13.901Z,7.53
2023-04-11T23:35:40.447Z,7.35
2023-04-11T23:38:07.030Z,7.10
2023-04-11T23:40:33.576Z,6.88
2023-04-11T23:43:00.141Z,7.07
2023-04-11T23:45:26.657Z,6.90
2023-04-11T23:47:53.667Z,7.30
2023-04-11T23:50:21.604Z,6.97
2023-04-11T23:52:48.070Z,7.07
2023-04-11T23:55:15.425Z,7.32
2023-04-11T23:57:42.000Z,7.00
